Time,TemperatureF,DewpointF,PressureIn,WindDirection,WindDirectionDegrees,WindSpeedMPH,WindSpeedGustMPH,Humidity,HourlyPrecipIn,Conditions,Clouds,dailyrainin,SolarRadiationWatts/m^2,SoftwareType,DateUTC
2013-02-13 00:02:00,15.0,6.0,-100.00,North,3,3.0,6.0,66,-99.99,,,0.02,0.000000,,2013-02-13 07:02:00,
2013-02-13 00:11:00,15.0,6.0,-100.00,North,3,3.0,6.0,66,-99.99,,,0.02,0.000000,,2013-02-13 07:11:00,
2013-02-13 00:42:00,15.0,6.0,-100.00,North,6,3.0,5.0,66,0.00,,,0.02,0.000000,,2013-02-13 07:42:00,
2013-02-13 00:52:00,15.0,6.0,-100.00,North,6,3.0,5.0,66,0.00,,,0.02,0.000000,,2013-02-13 07:52:00,
2013-02-13 01:01:00,15.0,6.0,-100.00,North,6,3.0,5.0,66,0.00,,,0.02,0.000000,,2013-02-13 08:01:00,
2013-02-13 01:11:00,15.0,6.0,-100.00,North,6,3.0,5.0,66,0.00,,,0.02,0.000000,,2013-02-13 08:11:00,
2013-02-13 01:32:00,17.0,8.0,-100.00,South,171,4.0,9.0,67,0.00,,,0.02,0.000000,,2013-02-13 08:32:00,
2013-02-13 01:43:00,17.0,8.0,-100.00,South,171,4.0,9.0,67,0.00,,,0.02,0.000000,,2013-02-13 08:43:00,
2013-02-13 01:52:00,17.0,8.0,-100.00,South,171,4.0,9.0,67,0.00,,,0.02,0.000000,,2013-02-13 08:52:00,
2013-02-13 02:01:00,17.0,8.0,-100.00,South,171,4.0,9.0,67,0.00,,,0.02,0.000000,,2013-02-13 09:01:00,
2013-02-13 02:11:00,17.0,8.0,-100.00,South,171,4.0,9.0,67,0.00,,,0.02,0.000000,,2013-02-13 09:11:00,
2013-02-13 02:42:00,17.0,8.0,-100.00,WNW,284,0.0,8.0,67,0.00,,,0.02,0.000000,,2013-02-13 09:42:00,
2013-02-13 02:52:00,17.0,8.0,-100.00,WNW,284,0.0,8.0,67,0.00,,,0.02,0.000000,,2013-02-13 09:52:00,
2013-02-13 03:01:00,17.0,8.0,-100.00,WNW,284,0.0,8.0,67,0.00,,,0.02,0.000000,,2013-02-13 10:01:00,
2013-02-13 03:11:00,17.0,8.0,-100.00,WNW,284,0.0,8.0,67,0.00,,,0.02,0.000000,,2013-02-13 10:11:00,
2013-02-13 03:32:00,18.0,9.0,-100.00,South,176,3.0,9.0,67,0.00,,,0.02,0.000000,,2013-02-13 10:32:00,
2013-02-13 03:42:00,18.0,9.0,-100.00,South,176,3.0,9.0,67,0.00,,,0.02,0.000000,,2013-02-13 10:42:00,
2013-02-13 03:52:00,18.0,9.0,-100.00,South,176,3.0,9.0,67,0.00,,,0.02,0.000000,,2013-02-13 10:52:00,
2013-02-13 04:01:00,18.0,9.0,-100.00,South,176,3.0,9.0,67,0.00,,,0.02,0.000000,,2013-02-13 11:01:00,
2013-02-13 04:11:00,18.0,9.0,-100.00,South,176,3.0,9.0,67,0.00,,,0.02,0.000000,,2013-02-13 11:11:00,
2013-02-13 04:32:00,18.0,9.0,-100.00,SW,224,2.0,6.0,68,0.00,,,0.02,0.000000,,2013-02-13 11:32:00,
2013-02-13 04:42:00,18.0,9.0,-100.00,SW,224,2.0,6.0,68,0.00,,,0.02,0.000000,,2013-02-13 11:42:00,
2013-02-13 04:52:00,18.0,9.0,-100.00,SW,224,2.0,6.0,68,0.00,,,0.02,0.000000,,2013-02-13 11:52:00,
2013-02-13 05:02:00,18.0,9.0,-100.00,SW,224,2.0,6.0,68,0.00,,,0.02,0.000000,,2013-02-13 12:02:00,
2013-02-13 05:11:00,18.0,9.0,-100.00,SW,224,2.0,6.0,68,0.00,,,0.02,0.000000,,2013-02-13 12:11:00,
2013-02-13 05:42:00,17.0,8.0,-100.00,SE,134,0.0,3.0,68,0.00,,,0.02,0.000000,,2013-02-13 12:42:00,
2013-02-13 05:52:00,17.0,8.0,-100.00,SE,134,0.0,3.0,68,0.00,,,0.02,0.000000,,2013-02-13 12:52:00,
2013-02-13 06:02:00,17.0,8.0,-100.00,SE,134,0.0,3.0,68,0.00,,,0.02,0.000000,,2013-02-13 13:02:00,
2013-02-13 06:11:00,17.0,8.0,-100.00,SE,134,0.0,3.0,68,0.00,,,0.02,0.000000,,2013-02-13 13:11:00,
2013-02-13 06:42:00,15.0,8.0,-100.00,ENE,77,0.0,3.0,74,0.00,,,0.02,0.000000,,2013-02-13 13:42:00,
2013-02-13 06:52:00,15.0,8.0,-100.00,ENE,77,0.0,3.0,74,0.00,,,0.02,0.000000,,2013-02-13 13:52:00,
2013-02-13 07:01:00,15.0,8.0,-100.00,ENE,77,0.0,3.0,74,0.00,,,0.02,0.000000,,2013-02-13 14:01:00,
2013-02-13 07:11:00,15.0,8.0,-100.00,ENE,77,0.0,3.0,74,0.00,,,0.02,0.000000,,2013-02-13 14:11:00,
2013-02-13 07:32:00,14.0,8.0,-100.00,NNW,335,3.0,5.0,75,0.00,,,0.02,2.000000,,2013-02-13 14:32:00,
2013-02-13 07:42:00,14.0,8.0,-100.00,NNW,335,3.0,5.0,75,0.00,,,0.02,2.000000,,2013-02-13 14:42:00,
2013-02-13 07:52:00,14.0,8.0,-100.00,NNW,335,3.0,5.0,75,0.00,,,0.02,2.000000,,2013-02-13 14:52:00,
2013-02-13 08:01:00,14.0,8.0,-100.00,NNW,335,3.0,5.0,75,0.00,,,0.02,2.000000,,2013-02-13 15:01:00,
2013-02-13 08:11:00,14.0,8.0,-100.00,NNW,335,3.0,5.0,75,0.00,,,0.02,2.000000,,2013-02-13 15:11:00,
2013-02-13 08:42:00,16.0,9.0,-100.00,SSW,206,0.0,4.0,74,0.00,,,0.02,45.000000,,2013-02-13 15:42:00,
2013-02-13 08:52:00,16.0,9.0,-100.00,SSW,206,0.0,4.0,74,0.00,,,0.02,45.000000,,2013-02-13 15:52:00,
2013-02-13 09:01:00,16.0,9.0,-100.00,SSW,206,0.0,4.0,74,0.00,,,0.02,45.000000,,2013-02-13 16:01:00,
2013-02-13 09:11:00,16.0,9.0,-100.00,SSW,206,0.0,4.0,74,0.00,,,0.02,45.000000,,2013-02-13 16:11:00,
2013-02-13 09:42:00,27.0,12.0,-100.00,ESE,104,0.0,3.0,53,0.00,,,0.01,238.000000,,2013-02-13 16:42:00,
2013-02-13 09:52:00,27.0,12.0,-100.00,ESE,104,0.0,3.0,53,0.00,,,0.01,238.000000,,2013-02-13 16:52:00,
2013-02-13 10:42:00,31.0,13.0,-100.00,SSE,168,4.0,9.0,46,-99.99,,,0.01,505.000000,,2013-02-13 17:42:00,
2013-02-13 10:52:00,31.0,13.0,-100.00,SSE,168,4.0,9.0,46,-99.99,,,0.01,505.000000,,2013-02-13 17:52:00,
2013-02-13 11:32:00,31.0,14.0,-100.00,South,177,3.0,8.0,48,0.00,,,-99.99,487.000000,,2013-02-13 18:32:00,
2013-02-13 12:01:00,31.0,14.0,-100.00,South,177,3.0,8.0,48,0.00,,,-99.99,487.000000,,2013-02-13 19:01:00,
2013-02-13 12:11:00,31.0,14.0,-100.00,South,177,3.0,8.0,48,0.00,,,-99.99,487.000000,,2013-02-13 19:11:00,
2013-02-13 12:32:00,31.0,15.0,-100.00,SSW,212,7.0,13.0,50,0.00,,,0.00,462.000000,,2013-02-13 19:32:00,
2013-02-13 12:42:00,31.0,15.0,-100.00,SSW,212,7.0,13.0,50,0.00,,,0.00,462.000000,,2013-02-13 19:42:00,
2013-02-13 12:52:00,31.0,15.0,-100.00,SSW,212,7.0,13.0,50,0.00,,,0.00,462.000000,,2013-02-13 19:52:00,
2013-02-13 13:02:00,31.0,15.0,-100.00,SSW,212,7.0,13.0,50,0.00,,,0.00,462.000000,,2013-02-13 20:02:00,
2013-02-13 13:11:00,31.0,15.0,-100.00,SSW,212,7.0,13.0,50,0.00,,,0.00,462.000000,,2013-02-13 20:11:00,
2013-02-13 13:42:00,34.0,16.0,-100.00,SW,230,6.0,13.0,47,0.00,,,-99.99,455.000000,,2013-02-13 20:42:00,
2013-02-13 13:52:00,34.0,16.0,-100.00,SW,230,6.0,13.0,47,0.00,,,-99.99,455.000000,,2013-02-13 20:52:00,
2013-02-13 14:01:00,34.0,16.0,-100.00,SW,230,6.0,13.0,47,0.00,,,-99.99,455.000000,,2013-02-13 21:01:00,
2013-02-13 14:11:00,34.0,16.0,-100.00,SW,230,6.0,13.0,47,0.00,,,-99.99,455.000000,,2013-02-13 21:11:00,
2013-02-13 14:42:00,36.0,16.0,-100.00,SW,232,8.0,18.0,44,0.00,,,0.00,486.000000,,2013-02-13 21:42:00,
2013-02-13 14:52:00,36.0,16.0,-100.00,SW,232,8.0,18.0,44,0.00,,,0.00,486.000000,,2013-02-13 21:52:00,
2013-02-13 15:11:00,36.0,16.0,-100.00,SW,232,8.0,18.0,44,0.00,,,0.00,486.000000,,2013-02-13 22:11:00,
2013-02-13 15:42:00,36.0,18.0,-100.00,SW,235,9.0,17.0,47,0.00,,,0.00,419.000000,,2013-02-13 22:42:00,
2013-02-13 15:52:00,36.0,18.0,-100.00,SW,235,9.0,17.0,47,0.00,,,0.00,419.000000,,2013-02-13 22:52:00,
2013-02-13 16:01:00,36.0,18.0,-100.00,SW,235,9.0,17.0,47,0.00,,,0.00,419.000000,,2013-02-13 23:01:00,
2013-02-13 16:11:00,36.0,18.0,-100.00,SW,235,9.0,17.0,47,0.00,,,0.00,419.000000,,2013-02-13 23:11:00,
2013-02-13 16:42:00,32.0,16.0,-100.00,SW,231,7.0,16.0,52,0.00,,,0.00,304.000000,,2013-02-13 23:42:00,
2013-02-13 16:52:00,32.0,16.0,-100.00,SW,231,7.0,16.0,52,0.00,,,0.00,304.000000,,2013-02-13 23:52:00,
2013-02-13 17:02:00,32.0,16.0,-100.00,SW,231,7.0,16.0,52,0.00,,,0.00,304.000000,,2013-02-14 00:02:00,
2013-02-13 17:11:00,32.0,16.0,-100.00,SW,231,7.0,16.0,52,0.00,,,0.00,304.000000,,2013-02-14 00:11:00,
2013-02-13 17:42:00,29.0,15.0,-100.00,SW,235,8.0,23.0,56,0.00,,,0.00,112.000000,,2013-02-14 00:42:00,
2013-02-13 17:52:00,29.0,15.0,-100.00,SW,235,8.0,23.0,56,0.00,,,0.00,112.000000,,2013-02-14 00:52:00,
2013-02-13 18:01:00,29.0,15.0,-100.00,SW,235,8.0,23.0,56,0.00,,,0.00,112.000000,,2013-02-14 01:01:00,
2013-02-13 18:11:00,29.0,15.0,-100.00,SW,235,8.0,23.0,56,0.00,,,0.00,112.000000,,2013-02-14 01:11:00,
2013-02-13 20:02:00,26.0,15.0,-100.00,WSW,241,4.0,16.0,62,-99.99,,,0.00,0.000000,,2013-02-14 03:02:00,
2013-02-13 20:11:00,26.0,15.0,-100.00,WSW,241,4.0,16.0,62,-99.99,,,0.00,0.000000,,2013-02-14 03:11:00,
2013-02-13 20:32:00,25.0,15.0,-100.00,SSW,211,2.0,10.0,64,0.00,,,0.00,0.000000,,2013-02-14 03:32:00,
2013-02-13 20:42:00,25.0,15.0,-100.00,SSW,211,2.0,10.0,64,0.00,,,0.00,0.000000,,2013-02-14 03:42:00,
2013-02-13 20:52:00,25.0,15.0,-100.00,SSW,211,2.0,10.0,64,0.00,,,0.00,0.000000,,2013-02-14 03:52:00,
2013-02-13 21:01:00,25.0,15.0,-100.00,SSW,211,2.0,10.0,64,0.00,,,0.00,0.000000,,2013-02-14 04:01:00,
2013-02-13 21:12:00,25.0,15.0,-100.00,SSW,211,2.0,10.0,64,0.00,,,0.00,0.000000,,2013-02-14 04:12:00,
2013-02-13 21:32:00,25.0,15.0,-100.00,WSW,238,4.0,10.0,66,0.00,,,0.00,0.000000,,2013-02-14 04:32:00,
2013-02-13 21:42:00,25.0,15.0,-100.00,WSW,238,4.0,10.0,66,0.00,,,0.00,0.000000,,2013-02-14 04:42:00,
2013-02-13 21:52:00,25.0,15.0,-100.00,WSW,238,4.0,10.0,66,0.00,,,0.00,0.000000,,2013-02-14 04:52:00,
2013-02-13 22:02:00,25.0,15.0,-100.00,WSW,238,4.0,10.0,66,0.00,,,0.00,0.000000,,2013-02-14 05:02:00,
2013-02-13 22:11:00,25.0,15.0,-100.00,WSW,238,4.0,10.0,66,0.00,,,0.00,0.000000,,2013-02-14 05:11:00,
2013-02-13 22:32:00,24.0,15.0,-100.00,SW,228,6.0,11.0,67,0.00,,,-99.99,0.000000,,2013-02-14 05:32:00,
2013-02-13 22:42:00,24.0,15.0,-100.00,SW,228,6.0,11.0,67,0.00,,,-99.99,0.000000,,2013-02-14 05:42:00,
2013-02-13 22:52:00,24.0,15.0,-100.00,SW,228,6.0,11.0,67,0.00,,,-99.99,0.000000,,2013-02-14 05:52:00,
2013-02-13 23:02:00,24.0,15.0,-100.00,SW,228,6.0,11.0,67,0.00,,,-99.99,0.000000,,2013-02-14 06:02:00,
2013-02-13 23:11:00,24.0,15.0,-100.00,SW,228,6.0,11.0,67,0.00,,,-99.99,0.000000,,2013-02-14 06:11:00,
2013-02-13 23:42:00,25.0,15.0,-100.00,SW,220,5.0,12.0,66,0.00,,,0.00,0.000000,,2013-02-14 06:42:00,
2013-02-13 23:52:00,25.0,15.0,-100.00,SW,220,5.0,12.0,66,0.00,,,0.00,0.000000,,2013-02-14 06:52:00,